»·PEaware :: N132KT KLAS-KMRY

N132KT :: KLAS-KMRY

FLIGHT INFORMATION

Flight Status: Arrived
Operator: Privately registered:
United States
More flights under this callsign
Pilot: Keith S. (1)
Aircraft: MITSUBISHI MU-2 MARQUISE
(MU2)
More flights by this aircraft type
Origin: KLAS McCarran Intl
United States
Destination: KMRY Monterey Peninsula
United States
More flights between these airports :: More routes between these airports
Route: +SHEAD KENNO BIH PXN SNS
File this flight plan on PilotEdge
Remarks:
Altitude:
(Current/Filed)
24,000ft
Speed:
(Current/Filed)
310kts
Departed: 01-Dec-17 08:37 AM
Arrived: 01-Dec-17 10:20 AM
Distance/Time
Traveled:
325nm/1:43
Distance/Time
To Go:
Arrived

Flight Plot

Page will automatically refresh every two minutes.

Flight plan parsing failed; only flown route is shown


Map Options




Map Legend


Flown Route
Filed Route
Departure Airport
Arrival Airport
Navaid (VOR, NDB)
Fix

Horizontal Profiles

Position Reports

Time Latitude Longitude Heading Altitude Ground
Speed
01-Dec-17 08:23 36.093042 -115.163487 23 2115ft 0kts
01-Dec-17 08:24 36.093042 -115.163487 23 2115ft 0kts
01-Dec-17 08:25 36.093042 -115.163487 23 2115ft 0kts
01-Dec-17 08:26 36.093042 -115.163487 23 2115ft 0kts
01-Dec-17 08:27 36.093042 -115.163487 23 2115ft 0kts
01-Dec-17 08:28 36.093042 -115.163487 23 2115ft 0kts
01-Dec-17 08:29 36.093042 -115.163487 23 2115ft 0kts
01-Dec-17 08:30 36.093042 -115.163487 23 2115ft 0kts
01-Dec-17 08:31 36.093042 -115.163487 23 2115ft 0kts
01-Dec-17 08:32 36.093042 -115.163487 23 2115ft 0kts
01-Dec-17 08:33 36.093042 -115.163486 25 2115ft 0kts
01-Dec-17 08:34 36.093042 -115.163486 24 2115ft 0kts
01-Dec-17 08:35 36.093042 -115.163486 24 2115ft 0kts
01-Dec-17 08:36 36.093063 -115.163405 73 2115ft 2kts
01-Dec-17 08:37 36.094729 -115.161668 25 2115ft 18kts
01-Dec-17 08:38 36.098996 -115.159232 24 2115ft 15kts
01-Dec-17 08:39 36.099829 -115.157503 91 2115ft 0kts
01-Dec-17 08:40 36.099829 -115.157503 91 2115ft 0kts
01-Dec-17 08:41 36.099585 -115.156564 122 2115ft 4kts
01-Dec-17 08:42 36.090147 -115.161891 206 2123ft 147kts
01-Dec-17 08:43 36.062840 -115.203231 281 3688ft 197kts
01-Dec-17 08:44 36.077302 -115.270883 281 5636ft 209kts
01-Dec-17 08:45 36.089457 -115.342612 279 7449ft 218kts
01-Dec-17 08:46 36.104941 -115.416338 283 9176ft 226kts
01-Dec-17 08:47 36.111226 -115.493281 243 10573ft 238kts
01-Dec-17 08:48 36.072099 -115.559225 244 12021ft 240kts
01-Dec-17 08:49 36.046330 -115.635806 244 13473ft 241kts
01-Dec-17 08:50 36.042007 -115.706079 314 14874ft 255kts
01-Dec-17 08:51 36.099421 -115.753948 314 16709ft 247kts
01-Dec-17 08:52 36.146007 -115.815821 310 18339ft 248kts
01-Dec-17 08:53 36.196564 -115.875219 307 19949ft 252kts
01-Dec-17 08:54 36.242280 -115.940623 310 21509ft 256kts
01-Dec-17 08:55 36.293296 -116.002915 313 23014ft 260kts
01-Dec-17 08:56 36.345361 -116.072797 310 23158ft 287kts
01-Dec-17 08:57 36.401274 -116.144335 311 23157ft 291kts
01-Dec-17 08:58 36.457576 -116.216301 311 23156ft 292kts
01-Dec-17 08:59 36.513204 -116.287513 311 23705ft 277kts
01-Dec-17 09:00 36.566578 -116.356102 311 24158ft 283kts
01-Dec-17 09:01 36.621921 -116.427290 311 24157ft 291kts
01-Dec-17 09:02 36.678540 -116.500286 311 24156ft 294kts
01-Dec-17 09:03 36.735225 -116.573537 311 24156ft 294kts
01-Dec-17 09:04 36.791964 -116.647031 311 24155ft 295kts
01-Dec-17 09:05 36.845824 -116.716947 310 24165ft 295kts
01-Dec-17 09:06 36.902509 -116.790698 310 24182ft 295kts
01-Dec-17 09:07 36.959070 -116.864450 310 24224ft 295kts
01-Dec-17 09:08 37.015586 -116.938320 310 24232ft 294kts
01-Dec-17 09:09 37.071625 -117.011692 310 24231ft 290kts
01-Dec-17 09:10 37.126382 -117.083548 308 24232ft 287kts
01-Dec-17 09:11 37.181149 -117.155680 308 24231ft 286kts
01-Dec-17 09:12 37.235834 -117.227815 308 24230ft 286kts
01-Dec-17 09:13 37.290360 -117.300404 302 24222ft 283kts
01-Dec-17 09:14 37.304570 -117.394212 275 24226ft 276kts
01-Dec-17 09:15 37.312247 -117.490049 275 24210ft 276kts
01-Dec-17 09:16 37.319675 -117.586201 275 24195ft 276kts
01-Dec-17 09:17 37.326931 -117.681306 274 24198ft 276kts
01-Dec-17 09:18 37.334210 -117.777641 275 24198ft 277kts
01-Dec-17 09:19 37.341395 -117.873821 274 24197ft 277kts
01-Dec-17 09:20 37.348505 -117.970062 274 24196ft 277kts
01-Dec-17 09:21 37.355559 -118.066641 274 24195ft 277kts
01-Dec-17 09:22 37.362513 -118.162948 275 24194ft 277kts
01-Dec-17 09:23 37.369388 -118.259246 275 24193ft 276kts
01-Dec-17 09:24 37.376165 -118.354939 275 24192ft 275kts
01-Dec-17 09:25 37.355720 -118.447641 254 24192ft 277kts
01-Dec-17 09:26 37.331488 -118.539647 254 24191ft 277kts
01-Dec-17 09:27 37.307368 -118.631002 254 24201ft 277kts
01-Dec-17 09:28 37.283427 -118.721349 254 24227ft 278kts
01-Dec-17 09:29 37.258885 -118.813654 254 24238ft 279kts
01-Dec-17 09:30 37.234221 -118.906057 254 24235ft 280kts
01-Dec-17 09:31 37.209527 -118.998274 254 24238ft 279kts
01-Dec-17 09:32 37.184759 -119.090455 254 24237ft 279kts
01-Dec-17 09:33 37.159930 -119.182527 254 24222ft 278kts
01-Dec-17 09:34 37.135068 -119.274389 254 24202ft 278kts
01-Dec-17 09:35 37.110260 -119.365714 255 24193ft 277kts
01-Dec-17 09:36 37.085360 -119.457066 255 24192ft 278kts
01-Dec-17 09:37 37.060327 -119.548601 255 24192ft 280kts
01-Dec-17 09:38 37.034892 -119.641297 256 24192ft 283kts
01-Dec-17 09:39 37.012197 -119.723716 255 24200ft 286kts
01-Dec-17 09:40 36.986083 -119.818239 255 24200ft 289kts
01-Dec-17 09:41 36.959619 -119.913694 256 24186ft 293kts
01-Dec-17 09:42 36.932180 -120.012375 255 23373ft 313kts
01-Dec-17 09:43 36.903858 -120.113722 255 21907ft 307kts
01-Dec-17 09:44 36.877666 -120.207799 258 20516ft 300kts
01-Dec-17 09:45 36.860689 -120.307744 261 18685ft 292kts
01-Dec-17 09:46 36.844486 -120.405371 261 16532ft 285kts
01-Dec-17 09:47 36.828601 -120.500593 260 14534ft 279kts
01-Dec-17 09:48 36.812911 -120.594147 259 12619ft 273kts
01-Dec-17 09:49 36.799062 -120.676415 258 11071ft 267kts
01-Dec-17 09:50 36.783783 -120.766263 259 9403ft 271kts
01-Dec-17 09:51 36.768398 -120.856930 259 8467ft 265kts
01-Dec-17 09:52 36.753148 -120.946176 259 7596ft 260kts
01-Dec-17 09:53 36.738092 -121.033762 259 6818ft 258kts
01-Dec-17 09:54 36.723101 -121.120641 259 6104ft 255kts
01-Dec-17 09:55 36.708153 -121.206872 259 5455ft 253kts
01-Dec-17 09:56 36.693387 -121.291667 259 4978ft 243kts
01-Dec-17 09:57 36.680857 -121.363481 259 4963ft 187kts
01-Dec-17 09:58 36.675265 -121.428688 267 4966ft 189kts
01-Dec-17 09:59 36.670944 -121.495487 263 4876ft 194kts
01-Dec-17 10:00 36.666494 -121.563219 263 4874ft 197kts
01-Dec-17 10:01 36.654030 -121.614093 225 4692ft 179kts
01-Dec-17 10:02 36.619954 -121.666083 227 3984ft 155kts
01-Dec-17 10:03 36.590161 -121.708307 221 3622ft 169kts
01-Dec-17 10:04 36.563777 -121.747083 232 2282ft 181kts
01-Dec-17 10:05 36.572113 -121.805252 321 1005ft 168kts
01-Dec-17 10:06 36.589165 -121.847711 295 548ft 181kts
01-Dec-17 10:07 36.610442 -121.912991 291 3457ft 181kts
01-Dec-17 10:08 36.626479 -121.961405 291 5493ft 181kts
01-Dec-17 10:09 36.667724 -121.968598 20 4968ft 176kts
01-Dec-17 10:10 36.715625 -121.943503 19 5254ft 198kts
01-Dec-17 10:11 36.762849 -121.902573 42 4969ft 213kts
01-Dec-17 10:12 36.793668 -121.847311 81 5038ft 193kts
01-Dec-17 10:13 36.797593 -121.779523 84 5070ft 210kts
01-Dec-17 10:14 36.802451 -121.704868 83 5035ft 215kts
01-Dec-17 10:15 36.800543 -121.634511 104 5001ft 189kts
01-Dec-17 10:16 36.760188 -121.608962 176 4941ft 187kts
01-Dec-17 10:17 36.712638 -121.606743 174 5105ft 153kts
01-Dec-17 10:18 36.674971 -121.605492 193 5134ft 126kts
01-Dec-17 10:19 36.648117 -121.631921 215 4113ft 135kts
01-Dec-17 10:20 36.622617 -121.662997 229 3969ft 135kts
01-Dec-17 10:21 36.598109 -121.697490 227 2742ft 140kts
01-Dec-17 10:22 36.573148 -121.733003 229 2342ft 137kts
01-Dec-17 10:23 36.561639 -121.774555 289 1633ft 139kts
01-Dec-17 10:24 36.576996 -121.815007 291 758ft 131kts
01-Dec-17 10:25 36.587302 -121.845305 291 165ft 14kts
01-Dec-17 10:26 36.586924 -121.846059 203 165ft 0kts
01-Dec-17 10:27 36.587905 -121.849543 293 165ft 17kts
01-Dec-17 10:28 36.589220 -121.853622 246 165ft 1kts
01-Dec-17 10:29 36.588893 -121.853735 192 165ft 0kts
01-Dec-17 10:30 36.588893 -121.853735 193 165ft 0kts

Navigation Log

Ident Type
Flight plan parsing failed, navigation log unavailable